createdAt,value
2023-03-19T00:00:02.064Z,3
2023-03-19T00:05:01.581Z,3
2023-03-19T00:10:01.989Z,4
2023-03-19T00:15:01.803Z,4
2023-03-19T00:20:02.663Z,3
2023-03-19T00:25:02.055Z,4
2023-03-19T00:30:01.428Z,3
2023-03-19T00:35:02.270Z,4
2023-03-19T00:40:01.699Z,5
2023-03-19T00:45:02.119Z,4
2023-03-19T00:50:01.946Z,4
2023-03-19T00:55:02.321Z,3
2023-03-19T01:00:01.837Z,3
2023-03-19T01:05:02.629Z,4
2023-03-19T01:10:02.151Z,4
2023-03-19T01:15:01.962Z,4
2023-03-19T01:20:01.427Z,5
2023-03-19T01:25:01.901Z,5
2023-03-19T01:30:02.276Z,5
2023-03-19T01:35:01.621Z,5
2023-03-19T01:40:02.018Z,5
2023-03-19T01:45:01.515Z,4
2023-03-19T01:50:01.862Z,5
2023-03-19T01:55:02.345Z,4
2023-03-19T02:00:01.711Z,5
2023-03-19T02:05:02.205Z,5
2023-03-19T02:10:02.023Z,4
2023-03-19T02:15:01.390Z,5
2023-03-19T02:20:01.956Z,5
2023-03-19T02:25:01.330Z,4
2023-03-19T02:30:03.077Z,4
2023-03-19T02:35:01.556Z,5
2023-03-19T02:40:01.966Z,5
2023-03-19T02:45:01.355Z,5
2023-03-19T02:50:01.708Z,4
2023-03-19T02:55:02.200Z,4
2023-03-19T03:00:01.605Z,3
2023-03-19T03:05:01.982Z,4
2023-03-19T03:10:01.815Z,5
2023-03-19T03:15:02.220Z,4
2023-03-19T03:20:02.091Z,7
2023-03-19T03:25:01.504Z,5
2023-03-19T03:30:02.021Z,5
2023-03-19T03:35:01.407Z,5
2023-03-19T03:40:01.825Z,7
2023-03-19T03:45:02.651Z,7
2023-03-19T03:50:02.441Z,8
2023-03-19T03:55:01.963Z,8
2023-03-19T04:00:01.568Z,5
2023-03-19T04:05:01.925Z,7
2023-03-19T04:10:01.320Z,8
2023-03-19T04:15:01.719Z,8
2023-03-19T04:20:02.170Z,8
2023-03-19T04:25:01.972Z,9
2023-03-19T04:30:01.338Z,7
2023-03-19T04:35:01.703Z,8
2023-03-19T04:40:02.104Z,8
2023-03-19T04:45:01.479Z,8
2023-03-19T04:50:02.276Z,9
2023-03-19T04:55:01.831Z,8
2023-03-19T05:00:02.228Z,9
2023-03-19T05:05:01.604Z,8
2023-03-19T05:10:02.019Z,10
2023-03-19T05:15:01.834Z,8
2023-03-19T05:20:02.262Z,9
2023-03-19T05:25:01.642Z,8
2023-03-19T05:30:01.983Z,8
2023-03-19T05:35:01.377Z,10
2023-03-19T05:40:01.912Z,9
2023-03-19T05:45:02.402Z,9
2023-03-19T05:50:02.050Z,9
2023-03-19T05:55:01.829Z,10
2023-03-19T06:00:02.382Z,9
2023-03-19T06:05:01.761Z,9
2023-03-19T06:10:02.172Z,9
2023-03-19T06:15:01.991Z,9
2023-03-19T06:20:01.438Z,9
2023-03-19T06:25:01.831Z,11
2023-03-19T06:30:02.625Z,10
2023-03-19T06:35:02.005Z,8
2023-03-19T06:40:01.562Z,10
2023-03-19T06:45:01.971Z,9
2023-03-19T06:50:01.361Z,10
2023-03-19T06:55:01.730Z,11
2023-03-19T07:00:02.105Z,13
2023-03-19T07:05:01.622Z,11
2023-03-19T07:10:02.465Z,11
2023-03-19T07:15:02.278Z,11
2023-03-19T07:20:02.159Z,12
2023-03-19T07:25:01.537Z,10
2023-03-19T07:30:02.124Z,11
2023-03-19T07:35:01.632Z,10
2023-03-19T07:40:02.155Z,11
2023-03-19T07:45:01.648Z,11
2023-03-19T07:50:02.430Z,10
2023-03-19T07:55:02.243Z,14
2023-03-19T08:00:01.804Z,13
2023-03-19T08:05:02.175Z,12
2023-03-19T08:10:01.753Z,13
2023-03-19T08:15:02.588Z,14
2023-03-19T08:20:02.168Z,14
2023-03-19T08:25:01.550Z,11
2023-03-19T08:30:02.363Z,14
2023-03-19T08:35:01.855Z,12
2023-03-19T08:40:02.370Z,13
2023-03-19T08:45:01.980Z,12
2023-03-19T08:50:01.481Z,11
2023-03-19T08:55:01.857Z,14
2023-03-19T09:00:02.689Z,11
2023-03-19T09:05:02.069Z,11
2023-03-19T09:10:01.611Z,14
2023-03-19T09:15:02.417Z,12
2023-03-19T09:20:01.854Z,14
2023-03-19T09:25:02.243Z,11
2023-03-19T09:30:02.040Z,14
2023-03-19T09:35:01.406Z,12
2023-03-19T09:40:01.934Z,13
2023-03-19T09:45:02.748Z,11
2023-03-19T09:50:02.138Z,14
2023-03-19T09:55:01.657Z,14
2023-03-19T10:00:02.045Z,14
2023-03-19T10:05:01.559Z,11
2023-03-19T10:10:02.089Z,14
2023-03-19T10:15:01.920Z,11
2023-03-19T10:20:01.506Z,12
2023-03-19T10:25:02.317Z,14
2023-03-19T10:30:02.127Z,13
2023-03-19T10:35:01.494Z,12
2023-03-19T10:40:01.948Z,14
2023-03-19T10:45:01.480Z,12
2023-03-19T10:50:02.031Z,13
2023-03-19T10:55:01.531Z,14
2023-03-19T11:00:02.313Z,13
2023-03-19T11:05:01.727Z,12
2023-03-19T11:10:02.252Z,10
2023-03-19T11:15:01.753Z,13
2023-03-19T11:20:01.997Z,13
2023-03-19T11:25:01.780Z,14
2023-03-19T11:30:02.591Z,13
2023-03-19T11:35:01.942Z,11
2023-03-19T11:40:01.356Z,12
2023-03-19T11:45:01.862Z,12
2023-03-19T11:50:02.209Z,13
2023-03-19T11:55:01.588Z,13
2023-03-19T12:00:02.114Z,11
2023-03-19T12:05:01.521Z,11
2023-03-19T12:10:01.942Z,10
2023-03-19T12:15:01.459Z,11
2023-03-19T12:20:01.876Z,9
2023-03-19T12:25:02.661Z,11
2023-03-19T12:30:02.112Z,11
2023-03-19T12:35:01.498Z,11
2023-03-19T12:40:01.896Z,11
2023-03-19T12:45:02.707Z,10
2023-03-19T12:50:02.237Z,11
2023-03-19T12:55:02.088Z,10
2023-03-19T13:00:01.813Z,10
2023-03-19T13:05:02.407Z,10
2023-03-19T13:10:01.954Z,10
2023-03-19T13:15:01.465Z,10
2023-03-19T13:20:02.375Z,8
2023-03-19T13:25:02.173Z,9
2023-03-19T13:30:02.008Z,13
2023-03-19T13:35:01.548Z,10
2023-03-19T13:40:01.949Z,10
2023-03-19T13:45:03.725Z,9
2023-03-19T13:50:01.885Z,9
2023-03-19T13:55:02.297Z,9
2023-03-19T14:00:02.115Z,9
2023-03-19T14:05:01.513Z,9
2023-03-19T14:10:01.894Z,8
2023-03-19T14:15:02.702Z,8
2023-03-19T14:20:07.179Z,10
2023-03-19T14:25:02.269Z,10
2023-03-19T14:30:01.655Z,9
2023-03-19T14:35:02.209Z,8
2023-03-19T14:40:01.781Z,8
2023-03-19T14:45:02.287Z,9
2023-03-19T14:50:01.769Z,7
2023-03-19T14:55:02.149Z,7
2023-03-19T15:00:01.557Z,9
2023-03-19T15:05:02.002Z,8
2023-03-19T15:10:01.427Z,8
2023-03-19T15:15:01.816Z,8
2023-03-19T15:20:02.268Z,7
2023-03-19T15:25:01.804Z,7
2023-03-19T15:30:13.641Z,6
2023-03-19T15:35:01.617Z,6
2023-03-19T15:40:02.535Z,7
2023-03-19T15:45:01.932Z,8
2023-03-19T15:50:02.495Z,7
2023-03-19T15:55:01.851Z,8
2023-03-19T16:00:02.344Z,8
2023-03-19T16:05:21.925Z,7
2023-03-19T16:10:01.865Z,5
2023-03-19T16:15:02.726Z,8
2023-03-19T16:20:02.455Z,8
2023-03-19T16:25:02.061Z,9
2023-03-19T16:30:01.574Z,8
2023-03-19T16:35:02.007Z,7
2023-03-19T16:40:01.534Z,8
2023-03-19T16:45:02.131Z,5
2023-03-19T16:50:01.637Z,8
2023-03-19T16:55:02.450Z,8
2023-03-19T17:00:01.963Z,7
2023-03-19T17:05:01.532Z,8
2023-03-19T17:10:02.057Z,8
2023-03-19T17:15:01.464Z,7
2023-03-19T17:20:01.930Z,7
2023-03-19T17:25:02.286Z,7
2023-03-19T17:30:02.088Z,5
2023-03-19T17:35:01.866Z,5
2023-03-19T17:40:02.431Z,4
2023-03-19T17:45:01.881Z,5
2023-03-19T17:50:02.264Z,5
2023-03-19T17:55:01.789Z,5
2023-03-19T18:00:02.610Z,5
2023-03-19T18:05:01.982Z,5
2023-03-19T18:10:01.581Z,4
2023-03-19T18:15:02.111Z,3
2023-03-19T18:20:01.679Z,4
2023-03-19T18:25:02.051Z,3
2023-03-19T18:30:01.537Z,3
2023-03-19T18:35:02.029Z,4
2023-03-19T18:40:01.586Z,5
2023-03-19T18:45:01.978Z,4
2023-03-19T18:50:01.416Z,4
2023-03-19T18:55:01.923Z,3
2023-03-19T19:00:02.754Z,3
2023-03-19T19:05:02.565Z,4
2023-03-19T19:10:01.952Z,3
2023-03-19T19:15:01.334Z,4
2023-03-19T19:20:02.238Z,5
2023-03-19T19:25:01.623Z,4
2023-03-19T19:30:02.164Z,3
2023-03-19T19:35:01.700Z,4
2023-03-19T19:40:02.104Z,4
2023-03-19T19:45:01.634Z,4
2023-03-19T19:50:01.994Z,3
2023-03-19T19:55:01.513Z,4
2023-03-19T20:00:01.951Z,3
2023-03-19T20:05:01.393Z,3
2023-03-19T20:10:02.206Z,3
2023-03-19T20:15:01.703Z,3
2023-03-19T20:20:02.158Z,3
2023-03-19T20:25:01.681Z,3
2023-03-19T20:30:02.079Z,3
2023-03-19T20:35:01.898Z,3
2023-03-19T20:40:02.312Z,2
2023-03-19T20:45:01.692Z,3
2023-03-19T20:50:02.470Z,2
2023-03-19T20:55:02.252Z,2
2023-03-19T21:00:01.652Z,2
2023-03-19T21:05:02.114Z,2
2023-03-19T21:10:01.544Z,2
2023-03-19T21:15:02.261Z,3
2023-03-19T21:20:02.161Z,2
2023-03-19T21:25:01.676Z,1
2023-03-19T21:30:02.464Z,2
2023-03-19T21:35:02.270Z,1
2023-03-19T21:40:01.801Z,2
2023-03-19T21:45:02.617Z,2
2023-03-19T21:50:02.105Z,2
2023-03-19T21:55:01.488Z,2
2023-03-19T22:00:01.887Z,2
2023-03-19T22:05:01.840Z,3
2023-03-19T22:10:02.268Z,2
2023-03-19T22:15:01.797Z,2
2023-03-19T22:20:01.932Z,1
2023-03-19T22:25:01.435Z,1
2023-03-19T22:30:01.797Z,2
2023-03-19T22:35:04.717Z,2
2023-03-19T22:40:01.744Z,2
2023-03-19T22:45:02.271Z,2
2023-03-19T22:50:01.640Z,2
2023-03-19T22:55:02.173Z,2
2023-03-19T23:00:01.762Z,2
2023-03-19T23:05:02.158Z,2
2023-03-19T23:10:02.032Z,2
2023-03-19T23:15:01.906Z,1
2023-03-19T23:20:02.519Z,1
2023-03-19T23:25:02.040Z,2
2023-03-19T23:30:01.831Z,2
2023-03-19T23:35:02.612Z,2
2023-03-19T23:40:02.026Z,3
2023-03-19T23:45:01.562Z,3
2023-03-19T23:50:02.353Z,3
2023-03-19T23:55:01.737Z,2
